Terminal Aerodrome Forecast
Issued by NWS

Home | Current Version | Previous Version | Text Only | Print | Product List | Glossary On
Versions: 1 2 3 4 5 6 7 8 9 10 11 12 13 14 15 16 17 18 19 20
000
FTUS46 KPDT 031727
TAFRDM
TAF
KRDM 031727Z 0318/0418 27005KT P6SM SCT025 BKN035
      TEMPO 0318/0319 BKN025 OVC035
     FM031900 VRB05KT P6SM BKN060
     FM032200 33011KT P6SM SCT060 BKN100
     FM040500 30007KT P6SM SCT100
     FM041100 VRB04KT P6SM SCT025 BKN040
     FM041600 30007KT P6SM FEW040=

USA.gov is the U.S. government's official web portal to all federal, state and local government web resources and services.